Time;durP1;ratioP1;P1;durP2;ratioP2;P2;SDS_P1;SDS_P2;PMS_P1;PMS_P2;Temp;Humidity;BMP_temperature;BMP_pressure;BME280_temperature;BME280_humidity;BME280_pressure;Samples;Min_cycle;Max_cycle;Signal;HPM_P1;HPM_P2
2021/05/25 00:00:55;;;;;;;3.33;1.20;;;15.20;99.90;;;;;;6207829;23;20020;-96
2021/05/25 00:03:25;;;;;;;4.15;1.15;;;15.20;99.90;;;;;;6210352;23;20016;-96
2021/05/25 00:05:52;;;;;;;5.70;1.15;;;15.10;99.90;;;;;;6218962;23;20008;-96
2021/05/25 00:08:19;;;;;;;2.90;1.05;;;15.10;99.90;;;;;;6191726;23;20009;-94
2021/05/25 00:10:46;;;;;;;5.03;1.23;;;15.00;99.90;;;;;;6167232;23;20016;-95
2021/05/25 00:13:14;;;;;;;3.50;1.00;;;15.00;99.90;;;;;;6232750;23;20008;-95
2021/05/25 00:15:43;;;;;;;3.40;1.27;;;15.00;99.90;;;;;;6228401;23;20020;-96
2021/05/25 00:18:10;;;;;;;3.10;1.00;;;15.00;99.90;;;;;;6203349;23;20013;-96
2021/05/25 00:20:38;;;;;;;2.83;1.10;;;15.00;99.90;;;;;;6202977;23;20011;-95
2021/05/25 00:23:05;;;;;;;4.63;1.10;;;15.00;99.90;;;;;;6208468;23;20024;-95
2021/05/25 00:25:32;;;;;;;2.80;1.10;;;14.90;99.90;;;;;;6178844;23;20009;-95
2021/05/25 00:28:00;;;;;;;9.45;2.63;;;14.90;99.90;;;;;;6203406;23;20009;-95
2021/05/25 00:30:27;;;;;;;3.83;1.05;;;14.90;99.90;;;;;;6178687;23;20015;-95
2021/05/25 00:32:55;;;;;;;4.07;1.20;;;14.80;99.90;;;;;;6202131;23;20155;-95
2021/05/25 00:35:23;;;;;;;3.95;1.40;;;14.90;99.90;;;;;;6210601;23;20020;-95
2021/05/25 00:37:50;;;;;;;3.85;1.13;;;14.80;99.90;;;;;;6210964;23;20016;-94
2021/05/25 00:40:17;;;;;;;2.90;1.27;;;14.80;99.90;;;;;;6211455;23;20016;-96
2021/05/25 00:42:46;;;;;;;3.72;1.15;;;14.80;99.90;;;;;;6187640;23;20008;-94
2021/05/25 00:45:14;;;;;;;4.82;1.20;;;14.90;99.90;;;;;;6219400;23;20004;-93
2021/05/25 00:47:42;;;;;;;;;;;14.90;99.90;;;;;;6242962;23;20023;-95
2021/05/25 00:50:14;;;;;;;2.72;1.13;;;15.00;99.90;;;;;;6190306;23;19920;-94
2021/05/25 00:52:43;;;;;;;3.97;1.38;;;14.90;99.90;;;;;;6220176;23;20017;-96
2021/05/25 00:55:14;;;;;;;3.15;1.30;;;15.00;99.90;;;;;;6237960;23;20009;-96
2021/05/25 00:57:43;;;;;;;2.22;1.10;;;14.80;99.90;;;;;;6180055;23;20015;-96
2021/05/25 01:00:12;;;;;;;3.47;1.45;;;14.60;99.90;;;;;;6178818;23;20040;-96
2021/05/25 01:02:43;;;;;;;3.70;1.13;;;14.50;99.90;;;;;;6200996;23;20064;-96
2021/05/25 01:05:13;;;;;;;4.53;1.30;;;14.50;99.90;;;;;;6201211;23;20008;-96
2021/05/25 01:07:42;;;;;;;2.85;1.10;;;14.40;99.90;;;;;;6177056;23;20037;-95
2021/05/25 01:10:11;;;;;;;3.42;1.50;;;14.30;99.90;;;;;;6201328;23;20053;-96
2021/05/25 01:12:50;;;;;;;6.00;1.25;;;14.20;99.90;;;;;;6176785;23;20016;-96
2021/05/25 01:15:18;;;;;;;4.47;1.40;;;14.30;99.90;;;;;;6172335;23;20016;-96
2021/05/25 01:17:51;;;;;;;3.22;1.10;;;14.30;99.90;;;;;;6201685;23;20259;-95
2021/05/25 01:20:22;;;;;;;5.35;1.58;;;14.40;99.90;;;;;;6199273;23;20013;-96
2021/05/25 01:22:51;;;;;;;3.60;1.00;;;14.50;99.90;;;;;;6222553;23;20053;-96
2021/05/25 01:25:19;;;;;;;2.10;1.08;;;14.50;99.90;;;;;;6173909;23;20021;-96
2021/05/25 01:27:51;;;;;;;4.97;1.10;;;14.30;99.90;;;;;;6200578;23;20253;-96
2021/05/25 01:30:21;;;;;;;1.98;1.05;;;14.10;99.90;;;;;;6199749;23;20494;-96
2021/05/25 01:32:49;;;;;;;3.97;1.20;;;14.10;99.90;;;;;;6199636;23;20024;-96
2021/05/25 01:35:16;;;;;;;3.53;1.60;;;14.20;99.90;;;;;;6173900;23;20333;-96
2021/05/25 01:37:47;;;;;;;4.20;1.45;;;14.40;99.90;;;;;;6172941;23;20060;-96
2021/05/25 01:40:18;;;;;;;3.40;1.10;;;14.30;99.90;;;;;;6198448;23;20020;-96
2021/05/25 01:42:56;;;;;;;2.15;1.10;;;14.30;99.90;;;;;;6198945;23;20057;-96
2021/05/25 01:45:26;;;;;;;2.58;1.23;;;14.20;99.90;;;;;;6207266;23;20009;-96
2021/05/25 01:47:54;;;;;;;2.92;1.30;;;14.20;99.90;;;;;;6210363;23;20015;-96
2021/05/25 01:50:24;;;;;;;3.17;1.30;;;14.30;99.90;;;;;;6203726;23;20009;-96
2021/05/25 01:52:55;;;;;;;1.75;1.08;;;14.30;99.90;;;;;;6223424;23;20041;-96
2021/05/25 01:55:34;;;;;;;2.45;1.10;;;14.30;99.90;;;;;;6198052;23;20042;-96
2021/05/25 01:58:02;;;;;;;;;;;14.20;99.90;;;;;;6198304;23;20352;-96
2021/05/25 02:00:30;;;;;;;2.30;0.90;;;14.00;99.90;;;;;;6173959;23;20224;-96
2021/05/25 02:02:58;;;;;;;2.20;1.10;;;14.00;99.90;;;;;;6199984;23;20061;-96
2021/05/25 02:05:25;;;;;;;2.13;1.08;;;13.90;99.90;;;;;;6175951;23;20247;-96
2021/05/25 02:07:55;;;;;;;2.10;1.00;;;14.00;99.90;;;;;;6184865;23;20015;-96
2021/05/25 02:10:25;;;;;;;4.80;1.40;;;14.00;99.90;;;;;;6190946;23;20009;-96
2021/05/25 02:13:06;;;;;;;2.38;1.10;;;14.00;99.90;;;;;;6193129;23;20013;-96
2021/05/25 02:15:34;;;;;;;3.15;0.95;;;13.90;99.90;;;;;;6192835;23;20005;-96
2021/05/25 02:18:07;;;;;;;3.08;1.20;;;13.90;99.90;;;;;;6188381;23;20017;-96
2021/05/25 02:20:34;;;;;;;2.35;1.10;;;14.00;99.90;;;;;;6209161;23;20005;-96
2021/05/25 02:23:01;;;;;;;2.90;1.08;;;13.90;99.90;;;;;;6211926;23;20012;-96
2021/05/25 02:25:30;;;;;;;3.60;1.17;;;13.90;99.90;;;;;;6205467;23;20009;-95
2021/05/25 02:28:08;;;;;;;5.22;1.55;;;13.90;99.90;;;;;;6207008;23;20036;-95
2021/05/25 10:02:42;;;;;;;3.83;0.73;;;14.90;69.70;;;;;;6273168;22;20016;-93
2021/05/25 10:05:12;;;;;;;1.15;0.50;;;15.30;69.00;;;;;;6272012;23;20012;-93
2021/05/25 10:39:54;;;;;;;1.10;0.40;;;17.00;67.50;;;;;;6201138;22;20012;-95
2021/05/25 10:42:37;;;;;;;1.92;0.55;;;16.90;66.10;;;;;;6240330;22;20011;-89
2021/05/25 11:07:40;;;;;;;2.13;0.45;;;17.50;63.30;;;;;;6260537;22;20051;-92
2021/05/25 11:22:42;;;;;;;2.38;0.60;;;15.70;64.50;;;;;;6224705;22;20020;-92
2021/05/25 11:25:11;;;;;;;0.57;0.40;;;16.70;63.30;;;;;;6212763;23;20004;-92
2021/05/25 11:27:46;;;;;;;;;;;17.90;58.50;;;;;;6212463;22;20041;-92
2021/05/25 11:39:36;;;;;;;1.50;0.40;;;16.70;60.80;;;;;;6200128;22;20008;-93
2021/05/25 11:50:53;;;;;;;0.60;0.22;;;18.10;52.90;;;;;;6210679;22;21268;-92
2021/05/25 11:53:21;;;;;;;0.55;0.20;;;18.50;53.70;;;;;;6208748;23;20023;-95
2021/05/25 11:55:51;;;;;;;1.27;0.40;;;19.70;51.70;;;;;;6209783;23;20016;-94
2021/05/25 11:58:22;;;;;;;1.40;0.60;;;20.20;50.80;;;;;;6211196;23;20400;-92
2021/05/25 12:18:27;;;;;;;7.20;0.50;;;17.50;63.50;;;;;;6266056;22;20016;-94
2021/05/25 12:20:55;;;;;;;6.72;0.82;;;18.60;61.70;;;;;;6218788;23;20004;-94
2021/05/25 12:23:25;;;;;;;5.35;0.90;;;19.00;61.20;;;;;;6220809;23;20024;-94
2021/05/25 12:25:54;;;;;;;2.20;0.60;;;19.80;60.10;;;;;;6216005;23;20076;-95
2021/05/25 12:28:24;;;;;;;2.03;0.70;;;20.10;58.00;;;;;;6209110;23;20331;-96
2021/05/25 12:30:53;;;;;;;5.00;0.90;;;19.70;58.10;;;;;;6261610;23;20016;-96
2021/05/25 13:26:41;;;;;;;1.30;0.40;;;15.30;90.90;;;;;;6221102;22;20219;-96
2021/05/25 13:29:15;;;;;;;3.58;0.50;;;16.60;90.00;;;;;;6216832;23;20048;-94
2021/05/25 13:31:46;;;;;;;1.95;0.60;;;17.80;88.40;;;;;;6215057;23;20019;-95
2021/05/25 13:34:41;;;;;;;0.40;0.25;;;18.50;81.00;;;;;;6213254;23;20012;-95
2021/05/25 13:37:21;;;;;;;0.57;0.38;;;17.80;77.20;;;;;;6238969;23;20071;-95
2021/05/25 13:39:59;;;;;;;0.97;0.40;;;17.90;77.00;;;;;;6246222;22;20018;-94
2021/05/25 13:42:31;;;;;;;1.33;0.43;;;19.50;70.20;;;;;;6243635;23;20012;-93
2021/05/25 13:45:02;;;;;;;1.33;0.50;;;20.90;61.30;;;;;;6220240;23;20011;-93
2021/05/25 13:47:30;;;;;;;1.48;0.60;;;21.00;58.00;;;;;;6218746;23;20004;-95
2021/05/25 13:50:22;;;;;;;1.40;0.30;;;19.70;57.40;;;;;;6220149;22;20052;-85
